Station: Taroom

  Atmospheric Gas Attenuation - ITU Rec 676-11   --------------- db/100km ---------------
Date Time Temp RH % AH g/m3 Dew Point Wind Direction Speed kph Gust kph Barometer mB Rainfall Since 9am 24GHz 47GHz 76GHz 122GHz 134GHz 241GHz
25 09:00 25.8 74 17.82 20.8 4 1012.3 49 38.4 37.4 70.9 187.5 204.5 710.3
24 09:00 29.8 55 16.5 19.8 4 1010.3 2 35.2 33.4 61.6 162.9 175.6 610.2
23 09:00 31.9 38 12.76 15.8 4 1007.8 0 27.3 26.8 45.7 120.5 124.1 430.7
21 09:00 30 49 14.86 18.4 7 1007.8 0.8 31.8 30.6 54.8 144.6 153.3 532.4
20 09:00 28.3 53 14.65 17.8 4 1012.5 0 31.5 31.0 55.3 146.1 154.5 536.3
19 09:00 25.2 61 14.2 17.2 9 1014 0 30.8 31.4 55.8 147.2 154.8 537.2
18 09:00 25.8 49 11.8 14.5 9 1015.3 0 25.7 27.4 45.9 121.0 122.7 425.0
17 09:00 25.8 49 11.8 14.5 9 1015.2 0 25.7 27.4 45.9 121.0 122.7 424.9
16 09:00 26.4 52 12.95 16 4 1013.7 0 28.1 29.0 49.9 131.7 136.1 471.9
15 09:00 26.8 50 12.73 15.7 9 1011 0.2 27.6 28.4 48.7 128.4 132.3 458.8
14 09:00 25.1 96 22.22 24.4 4 1006.8 5 47.9 46.1 92.5 244.9 275.0 955.4
13 09:00 28.6 47 13.21 16.2 24 1010.4 0 28.5 28.6 49.4 130.4 135.2 469.2
12 09:00 27.1 51 13.2 16.3 4 1012.9 0 28.5 29.1 50.4 133.0 138.0 478.6
11 09:00 26.2 52 12.8 15.6 9 1013.4 0.2 27.8 28.8 49.5 130.4 134.5 466.3
10 09:00 25.3 53 12.41 15.2 4 1012.5 0 27.0 28.4 48.5 127.7 130.9 453.7
09 09:00 26.9 54 13.82 17 9 1010.7 0 29.9 30.1 52.9 139.6 146.1 507.0
08 09:00 30.9 34 10.83 13.5 4 1006.7 0 23.4 24.3 39.4 103.7 103.2 357.4
07 09:00 30.4 58 17.98 21.3 4 1005.5 0 38.3 35.5 67.1 177.4 193.8 673.6
06 09:00 28 54 14.69 18 7 1008.1 0 31.6 31.0 55.5 146.6 155.1 538.4
05 09:00 27.2 59 15.35 18.5 4 1010.6 0 33.1 32.5 58.9 155.6 165.8 575.8
04 09:00 27 54 13.9 17.1 4 1010.9 0 30.0 30.2 53.2 140.3 147.0 510.0
03 09:00 27.5 59 15.61 19 4 1008.8 0 33.6 32.7 59.7 157.6 168.5 585.2
02 09:00 1013.1
01 09:00 27.7 48 12.84 15.7 9 1012 0 27.8 28.3 48.6 128.2 132.3 458.8
31 09:00 26.9 54 13.82 16.8 13 1012 0 29.9 30.1 53.0 139.8 146.3 507.5
30 09:00 26.8 56 14.25 17.4 17 1010.8 0 30.8 30.8 54.7 144.4 152.0 527.4
29 09:00 26.4 57 14.19 17.3 9 1011.2 0 30.7 30.9 54.8 144.5 152.0 527.4
28 09:00 29.4 47 13.8 17.1 4 1010.7 0 29.6 29.2 51.2 135.1 141.3 490.3
27 09:00 28.1 58 15.86 19.2 4 1008.2 0 34.1 32.9 60.2 159.1 170.5 592.2
26 09:00 28.7 49 13.85 17.1 6 1007.7 0 29.8 29.4 51.7 136.4 142.8 495.7
25 09:00 27 55 14.16 17.3 9 1010.9 0 30.6 30.6 54.2 143.1 150.4 521.9
24 09:00 26.1 54 13.22 16.2 11 1013.7 0 28.7 29.5 51.2 135.0 140.1 485.9
23 09:00 27.6 52 13.83 17.1 15 1013 0 29.8 30.0 52.6 138.8 145.2 503.8
22 09:00 26.7 45 11.39 14 4 1013.9 0 24.8 26.5 43.8 115.4 116.1 402.2
21 09:00 26 53 12.9 15.7 9 1016.7 0 28.0 29.1 50.1 132.2 136.5 473.1
20 09:00 28.9 51 14.57 18 4 1016.4 0 31.3 30.8 54.8 144.7 152.7 530.1
19 09:00 25.3 70 16.39 19.6 4 1014.1 3 35.4 35.2 65.1 171.9 185.2 642.9
18 09:00 27.9 55 14.88 18.2 4 1012.6 0 32.0 31.5 56.6 149.4 158.3 549.6
17 09:00 27.7 39 10.43 12.7 17 1011.6 0 22.7 24.7 39.7 104.5 103.1 356.8
16 09:00 28.9 51 14.57 18 4 1007.5 0.2 31.3 30.5 54.4 143.6 151.7 526.6
15 09:00 27.8 54 14.53 17.9 4 1009.2 0 31.3 30.9 55.0 145.4 153.5 532.8
14 09:00 26.3 58 14.36 17.6 4 1012.8 0 31.0 31.3 55.6 146.8 154.6 536.6
13 09:00 25.2 55 12.8 15.5 9 1014.2 0 27.8 29.2 50.1 132.2 136.3 472.5
12 09:00 25.3 54 12.64 15.4 9 1014.1 0 27.5 28.9 49.4 130.3 134.1 464.6
11 09:00 24.4 62 13.8 16.8 9 1014.3 0.1 30.0 31.1 54.7 144.4 151.1 523.9
10 09:00 21.2 81 15.01 17.8 0 1015.2 10 32.8 34.4 62.4 164.7 175.0 607.1
09 09:00 19.8 93 15.88 18.7 0 1013.9 18 34.8 36.5 67.5 178.3 191.3 663.6
08 09:00 21 88 16.12 18.9 9 1013 3 35.2 36.4 67.5 178.3 191.8 665.4
07 09:00 26.2 72 17.73 20.9 4 1010.4 2 38.2 37.0 70.0 185.1 201.8 701.0
06 09:00 31.3 49 15.94 19.3 9 1008.9 0 34.0 31.9 58.1 153.7 164.7 572.4
05 09:00 28.7 63 17.8 21.1 4 1008.7 6 38.1 36.0 68.0 179.8 196.0 681.2
04 09:00 1013.1
03 09:00 29.4 58 17.03 20.3 9 1008.2 0 36.4 34.4 64.0 169.4 183.5 637.6
02 09:00 27.8 52 13.99 17.2 17 1010.9 0 30.2 30.1 53.0 139.9 146.7 508.9
01 09:00 27.9 17 1011.9 0
31 09:00 26.4 76 18.92 21.9 9 1011.8 0.8 40.7 39.2 75.3 199.3 219.2 761.5
30 09:00 24.7 75 16.98 20.1 4 1011.8 0.2 36.7 36.4 68.1 179.9 194.9 676.9
29 09:00 27.8 60 16.14 19.5 13 1011.2 0 34.7 33.6 61.8 163.2 175.4 609.1
28 09:00 28.1 57 15.59 18.8 7 1011.8 0 33.5 32.6 59.3 156.6 167.3 581.0
27 09:00 25.4 58 13.65 16.5 7 1015.3 0 29.6 30.5 53.5 141.0 147.2 510.6
26 09:00 25.3 55 12.88 15.8 15 1016 0.1 28.0 29.3 50.5 133.1 137.4 476.2
25 09:00 23 74 15.21 18.2 4 1014.6 3 33.1 34.0 61.8 163.2 173.7 602.7
24 09:00 26.8 63 16.04 19.2 9 1014 0 34.5 33.9 62.3 164.6 176.6 613.4
23 09:00 24.5 58 12.98 15.8 4 1013.1 15 28.3 29.6 51.2 135.1 139.8 484.6
22 09:00 29.6 59 17.51 20.8 9 1007.4 0 37.4 35.1 65.9 174.2 189.5 658.6
21 09:00 29.1 59 17.04 20.3 9 1008.7 0 36.4 34.5 64.4 170.2 184.4 640.8
20 09:00 29.5 59 17.42 20.8 15 1011.5 0 37.2 35.1 65.8 174.0 189.1 657.1
19 09:00 28.6 72 20.24 23.2 11 1011.4 22 43.2 40.6 79.2 209.5 232.4 807.8
18 09:00 29.6 61 18.1 21.3 13 1009.7 0.2 38.6 36.2 68.5 181.3 198.1 688.5
16 09:00 27.5 67 17.73 20.9 4 1009 25 38.0 36.4 68.7 181.8 198.2 688.6
15 09:00 24.9 73 16.71 19.8 13 1008.6 3 36.1 35.7 66.5 175.8 190.0 659.9
14 09:00 23 71 14.59 17.5 4 1008.3 5 31.8 32.7 58.7 155.1 164.1 569.3
13 09:00 24.2 63 13.86 16.9 17 1014.2 0 30.1 31.2 55.1 145.4 152.2 528.0
12 09:00 24.9 48 10.99 13.1 24 1018.2 0.4 24.0 26.6 43.5 114.5 114.3 395.3
11 09:00 25.1 54 12.5 15.2 9 1017.6 0 27.2 28.8 49.2 129.6 133.0 460.7
10 09:00 27.4 49 12.89 15.9 9 1017.5 0 27.9 28.7 49.3 129.9 134.0 464.7
09 09:00 26.8 46 11.71 14.3 9 1016 0 25.4 27.0 45.1 118.7 120.1 416.0
08 09:00 26.5 37 9.26 10.8 4 1013.4 12 20.4 23.4 36.3 95.3 91.3 315.1
07 09:00 29.8 59 17.7 21 4 1009.4 0 37.8 35.4 66.6 176.2 191.9 667.1
06 09:00 30.9 39 12.42 15.4 30 1009.4 0 26.7 26.6 45.1 118.9 121.8 422.4
05 09:00 31.2 44 14.24 17.8 28 1013 0 30.4 29.4 51.8 136.8 143.8 499.2
04 09:00 28.4 50 13.9 17 9 1017.5 0 29.9 30.0 52.6 138.7 145.1 503.5
03 09:00 29.3 48 14.02 17.3 46 1017.3 0 30.1 29.8 52.4 138.3 144.9 503.1
02 09:00 31.8 51 17.04 20.6 4 1014.3 0 36.2 33.7 62.5 165.2 178.8 621.4
01 09:00 29.8 45 13.5 16.8 9 1015.3 0 29.0 28.8 50.0 131.9 137.3 476.4
30 09:00 30.1 43 13.11 16.2 9 1012.1 0 28.2 28.0 48.2 127.2 131.6 456.7
29 09:00 29 46 13.21 16.2 22 1013.6 0 28.4 28.5 49.3 130.1 134.9 467.9
28 09:00 27 46 11.84 14.6 22 1016.1 0 25.7 27.2 45.5 119.7 121.4 420.6
27 09:00 29.6 54 16.03 19.5 9 1015.2 0 34.3 32.9 60.1 158.9 170.3 591.8
26 09:00 28.6 55 15.46 18.9 13 1012.5 0 33.2 32.2 58.4 154.3 164.6 571.5
25 09:00 28.9 54 15.43 18.7 17 1011.7 0.8 33.1 32.0 58.0 153.3 163.4 567.6
24 09:00 28.8 46 13.07 16.3 9 1007.9 0 28.2 28.2 48.6 128.3 132.9 461.0
23 09:00 27.3 47 12.3 15.2 4 1014.4 0 26.7 27.7 46.9 123.7 126.5 438.3
22 09:00 26.9 47 12.03 14.9 13 1018.8 0 26.1 27.6 46.3 122.1 124.2 430.2
21 09:00 27.9 45 12.17 15.1 13 1019.6 0 26.3 27.5 46.3 122.0 124.4 431.2
20 09:00 26.4 54 13.44 16.4 4 1020 0 29.1 30.0 52.2 137.6 143.1 496.3
19 09:00 23.8 64 13.77 16.7 9 1020.7 0 29.9 31.5 55.3 146.0 152.6 529.0
18 09:00 28.8 52 14.78 18 9 1018.7 0 31.7 31.3 55.8 147.4 155.9 541.2
17 09:00 30.1 52 15.86 19.2 4 1015.2 0 33.9 32.4 59.1 156.0 167.0 580.2
16 09:00 31.2 51 16.5 20 9 1016.3 0 35.1 33.1 60.9 160.9 173.2 602.0

Last Refresh: 27-Feb-2021 01:50:47

Most of the information presented on this site is sourced from the Bureau of Meteorology.  Copyright in all material sourced from the Bureau of Meteorology resides with the Commonwealth of Australia.